createdAt,value
2018-11-23T00:01:35.089Z,3.40
2018-11-23T00:04:02.885Z,3.50
2018-11-23T00:06:30.667Z,3.50
2018-11-23T00:08:58.468Z,3.40
2018-11-23T00:11:26.305Z,3.40
2018-11-23T00:13:54.085Z,3.40
2018-11-23T00:16:21.917Z,3.60
2018-11-23T00:18:49.695Z,3.50
2018-11-23T00:21:17.490Z,3.50
2018-11-23T00:23:45.308Z,3.50
2018-11-23T00:26:13.078Z,3.50
2018-11-23T00:28:40.914Z,3.50
2018-11-23T00:31:09.026Z,3.50
2018-11-23T00:33:36.942Z,3.50
2018-11-23T00:36:05.582Z,3.50
2018-11-23T00:38:33.680Z,3.50
2018-11-23T00:41:01.454Z,3.30
2018-11-23T00:43:29.282Z,3.40
2018-11-23T00:45:57.201Z,3.40
2018-11-23T00:48:25.002Z,3.40
2018-11-23T00:50:52.812Z,3.30
2018-11-23T00:53:20.627Z,3.30
2018-11-23T00:55:49.174Z,3.30
2018-11-23T00:58:17.267Z,3.30
2018-11-23T01:00:45.089Z,3.20
2018-11-23T01:03:12.912Z,3.30
2018-11-23T01:05:40.817Z,3.30
2018-11-23T01:08:08.988Z,3.30
2018-11-23T01:10:36.836Z,3.40
2018-11-23T01:13:05.326Z,3.30
2018-11-23T01:15:33.150Z,3.30
2018-11-23T01:18:01.125Z,3.30
2018-11-23T01:20:29.196Z,3.30
2018-11-23T01:22:57.551Z,3.30
2018-11-23T01:25:26.158Z,3.40
2018-11-23T01:27:54.681Z,3.40
2018-11-23T01:30:23.854Z,3.40
2018-11-23T01:32:52.561Z,3.50
2018-11-23T01:35:20.386Z,3.50
2018-11-23T01:37:48.146Z,3.50
2018-11-23T01:40:18.244Z,3.50
2018-11-23T01:42:46.373Z,3.50
2018-11-23T01:45:14.440Z,3.50
2018-11-23T01:47:42.398Z,3.50
2018-11-23T01:50:12.427Z,3.50
2018-11-23T01:52:40.302Z,3.50
2018-11-23T01:55:09.298Z,3.50
2018-11-23T01:57:37.706Z,3.40
2018-11-23T02:00:06.655Z,3.40
2018-11-23T02:02:34.778Z,3.40
2018-11-23T02:05:02.631Z,3.40
2018-11-23T02:07:30.462Z,3.40
2018-11-23T02:09:58.261Z,3.30
2018-11-23T02:12:26.094Z,3.40
2018-11-23T02:14:54.032Z,3.40
2018-11-23T02:17:23.459Z,3.40
2018-11-23T02:19:52.851Z,3.50
2018-11-23T02:22:20.674Z,3.40
2018-11-23T02:24:48.461Z,3.40
2018-11-23T02:27:16.394Z,3.40
2018-11-23T02:29:44.960Z,3.30
2018-11-23T02:32:12.142Z,3.30
2018-11-23T02:34:39.970Z,3.20
2018-11-23T02:37:07.750Z,3.20
2018-11-23T02:39:35.630Z,3.30
2018-11-23T02:42:03.747Z,3.30
2018-11-23T02:44:31.728Z,3.40
2018-11-23T02:46:59.602Z,3.10
2018-11-23T02:49:27.406Z,3.10
2018-11-23T02:51:55.256Z,3.00
2018-11-23T02:54:23.022Z,2.80
2018-11-23T02:56:50.810Z,2.90
2018-11-23T02:59:18.598Z,3.00
2018-11-23T03:01:46.384Z,2.80
2018-11-23T03:04:14.206Z,2.80
2018-11-23T03:06:42.074Z,2.70
2018-11-23T03:09:10.214Z,2.50
2018-11-23T03:11:40.039Z,2.50
2018-11-23T03:14:08.153Z,2.40
2018-11-23T03:16:36.313Z,2.40
2018-11-23T03:19:04.520Z,2.40
2018-11-23T03:21:32.560Z,2.50
2018-11-23T03:24:00.378Z,2.50
2018-11-23T03:26:28.648Z,2.50
2018-11-23T03:28:56.449Z,2.50
2018-11-23T03:31:25.153Z,2.60
2018-11-23T03:33:53.364Z,2.60
2018-11-23T03:36:21.766Z,2.90
2018-11-23T03:38:50.506Z,2.90
2018-11-23T03:41:18.305Z,2.90
2018-11-23T03:43:46.601Z,3.00
2018-11-23T03:46:14.546Z,3.00
2018-11-23T03:48:42.392Z,3.00
2018-11-23T03:51:10.277Z,3.20
2018-11-23T03:53:38.330Z,3.30
2018-11-23T03:56:06.390Z,3.20
2018-11-23T03:58:34.848Z,3.40
2018-11-23T04:01:02.664Z,3.10
2018-11-23T04:03:30.467Z,3.00
2018-11-23T04:05:58.289Z,3.00
2018-11-23T04:08:26.058Z,3.00
2018-11-23T04:10:53.830Z,2.90
2018-11-23T04:13:21.628Z,2.90
2018-11-23T04:15:49.410Z,3.20
2018-11-23T04:18:17.486Z,2.80
2018-11-23T04:20:55.237Z,2.80
2018-11-23T04:23:23.038Z,2.70
2018-11-23T04:25:50.825Z,2.70
2018-11-23T04:28:18.605Z,2.60
2018-11-23T04:30:46.383Z,2.60
2018-11-23T04:33:14.187Z,2.60
2018-11-23T04:35:42.108Z,2.90
2018-11-23T04:38:09.894Z,3.30
2018-11-23T04:40:37.676Z,3.00
2018-11-23T04:43:05.611Z,3.00
2018-11-23T04:45:33.724Z,2.90
2018-11-23T04:48:02.502Z,2.70
2018-11-23T04:52:54.426Z,2.60
2018-11-23T04:55:22.225Z,2.50
2018-11-23T04:57:53.792Z,2.50
2018-11-23T05:00:18.102Z,2.60
2018-11-23T05:02:46.633Z,2.60
2018-11-23T05:05:14.581Z,2.60
2018-11-23T05:07:43.789Z,3.20
2018-11-23T05:10:12.677Z,2.80
2018-11-23T05:12:40.645Z,2.90
2018-11-23T05:15:09.853Z,3.10
2018-11-23T05:17:37.687Z,3.10
2018-11-23T05:20:06.379Z,3.00
2018-11-23T05:22:34.673Z,2.90
2018-11-23T05:25:02.534Z,2.80
2018-11-23T05:27:30.501Z,2.70
2018-11-23T05:29:58.987Z,2.70
2018-11-23T05:32:26.870Z,2.70
2018-11-23T05:34:54.667Z,2.70
2018-11-23T05:37:22.447Z,2.70
2018-11-23T05:39:50.740Z,2.70
2018-11-23T05:42:18.529Z,2.90
2018-11-23T05:44:46.419Z,2.80
2018-11-23T05:47:14.238Z,2.80
2018-11-23T05:49:42.052Z,2.70
2018-11-23T05:52:09.825Z,2.70
2018-11-23T05:54:37.595Z,2.70
2018-11-23T05:57:05.650Z,2.70
2018-11-23T05:59:33.534Z,2.70
2018-11-23T06:02:01.366Z,2.70
2018-11-23T06:04:29.165Z,2.80
2018-11-23T06:06:56.959Z,2.70
2018-11-23T06:09:24.758Z,2.80
2018-11-23T06:11:52.526Z,2.80
2018-11-23T06:14:20.318Z,2.80
2018-11-23T06:16:48.139Z,2.70
2018-11-23T06:19:15.943Z,2.60
2018-11-23T06:21:43.705Z,2.60
2018-11-23T06:24:11.506Z,2.50
2018-11-23T06:26:39.357Z,2.50
2018-11-23T06:29:07.182Z,2.50
2018-11-23T06:31:35.193Z,2.40
2018-11-23T06:34:03.020Z,2.60
2018-11-23T06:36:30.822Z,2.30
2018-11-23T06:38:58.616Z,2.20
2018-11-23T06:41:26.495Z,2.30
2018-11-23T06:43:54.305Z,2.30
2018-11-23T06:46:22.409Z,2.40
2018-11-23T06:48:50.285Z,2.40
2018-11-23T06:51:18.058Z,2.40
2018-11-23T06:53:45.857Z,2.40
2018-11-23T06:56:13.670Z,2.40
2018-11-23T06:58:41.803Z,2.40
2018-11-23T07:01:09.630Z,2.40
2018-11-23T07:03:37.523Z,2.40
2018-11-23T07:06:05.501Z,2.70
2018-11-23T07:08:33.266Z,2.40
2018-11-23T07:11:02.329Z,2.40
2018-11-23T07:13:30.705Z,2.50
2018-11-23T07:15:58.550Z,2.50
2018-11-23T07:18:26.678Z,2.50
2018-11-23T07:20:55.011Z,2.50
2018-11-23T07:23:23.120Z,2.60
2018-11-23T07:25:52.279Z,2.60
2018-11-23T07:28:21.265Z,2.70
2018-11-23T07:30:49.353Z,2.80
2018-11-23T07:33:17.224Z,2.90
2018-11-23T07:35:45.334Z,3.00
2018-11-23T07:38:13.565Z,3.00
2018-11-23T07:40:53.978Z,3.00
2018-11-23T07:43:23.671Z,3.10
2018-11-23T07:45:51.569Z,3.10
2018-11-23T07:48:19.546Z,3.10
2018-11-23T07:50:48.287Z,3.10
2018-11-23T07:53:16.238Z,2.60
2018-11-23T07:55:44.350Z,3.30
2018-11-23T07:58:12.610Z,3.60
2018-11-23T08:00:40.989Z,3.70
2018-11-23T08:03:09.069Z,3.60
2018-11-23T08:05:37.137Z,3.50
2018-11-23T08:08:07.280Z,3.40
2018-11-23T08:10:34.746Z,3.40
2018-11-23T08:13:02.655Z,3.40
2018-11-23T08:15:30.482Z,3.40
2018-11-23T08:17:58.294Z,3.70
2018-11-23T08:20:26.243Z,3.70
2018-11-23T08:22:54.117Z,3.70
2018-11-23T08:25:22.941Z,3.90
2018-11-23T08:27:52.106Z,3.90
2018-11-23T08:30:28.065Z,4.30
2018-11-23T08:32:56.149Z,4.30
2018-11-23T08:35:23.962Z,4.00
2018-11-23T08:37:51.970Z,4.20
2018-11-23T08:40:24.712Z,4.20
2018-11-23T08:45:32.527Z,4.80
2018-11-23T08:48:00.638Z,5.40
2018-11-23T08:50:29.554Z,5.90
2018-11-23T08:52:57.494Z,6.30
2018-11-23T08:55:25.788Z,7.10
2018-11-23T08:57:55.644Z,7.70
2018-11-23T09:00:25.673Z,8.40
2018-11-23T09:02:54.847Z,9.50
2018-11-23T09:05:22.639Z,10.20
2018-11-23T09:07:51.764Z,10.50
2018-11-23T09:10:21.102Z,10.80
2018-11-23T09:12:51.098Z,10.70
2018-11-23T09:15:18.898Z,10.40
2018-11-23T09:17:46.709Z,10.50
2018-11-23T09:20:15.292Z,10.90
2018-11-23T09:22:43.094Z,11.40
2018-11-23T09:25:14.509Z,11.70
2018-11-23T09:27:42.378Z,12.10
2018-11-23T09:30:14.638Z,12.60
2018-11-23T09:32:42.669Z,13.10
2018-11-23T09:35:10.502Z,13.40
2018-11-23T09:37:38.955Z,13.70
2018-11-23T09:40:09.170Z,13.80
2018-11-23T09:42:37.482Z,14.00
2018-11-23T09:45:07.538Z,14.10
2018-11-23T09:47:35.365Z,14.20
2018-11-23T09:50:03.992Z,14.40
2018-11-23T09:52:31.846Z,14.50
2018-11-23T09:54:59.654Z,14.70
2018-11-23T09:57:27.460Z,14.80
2018-11-23T09:59:55.219Z,14.60
2018-11-23T10:02:23.021Z,14.20
2018-11-23T10:04:50.816Z,14.00
2018-11-23T10:07:18.606Z,13.60
2018-11-23T10:09:46.406Z,12.90
2018-11-23T10:12:14.205Z,12.30
2018-11-23T10:14:42.037Z,11.80
2018-11-23T10:17:09.865Z,11.60
2018-11-23T10:19:37.858Z,11.30
2018-11-23T10:22:05.760Z,11.20
2018-11-23T10:24:34.570Z,11.10
2018-11-23T10:27:03.385Z,11.00
2018-11-23T10:29:32.523Z,11.00
2018-11-23T10:32:00.807Z,11.10
2018-11-23T10:34:28.590Z,10.40
2018-11-23T10:36:56.391Z,10.20
2018-11-23T10:39:24.170Z,9.80
2018-11-23T10:41:52.229Z,9.50
2018-11-23T10:44:20.023Z,9.30
2018-11-23T10:46:48.262Z,9.20
2018-11-23T10:49:16.129Z,9.10
2018-11-23T10:51:43.954Z,9.00
2018-11-23T10:54:11.857Z,9.00
2018-11-23T10:56:39.644Z,9.00
2018-11-23T10:59:07.642Z,9.00
2018-11-23T11:01:40.929Z,9.00
2018-11-23T11:04:14.207Z,9.00
2018-11-23T11:06:52.993Z,9.00
2018-11-23T11:09:20.777Z,9.10
2018-11-23T11:11:48.569Z,9.10
2018-11-23T11:14:16.374Z,9.20
2018-11-23T11:16:44.195Z,9.20
2018-11-23T11:19:12.018Z,9.20
2018-11-23T11:21:39.810Z,9.30
2018-11-23T11:24:07.696Z,9.40
2018-11-23T11:26:35.547Z,9.40
2018-11-23T11:29:03.387Z,9.60
2018-11-23T11:31:31.284Z,9.80
2018-11-23T11:33:59.106Z,10.10
2018-11-23T11:36:26.979Z,10.30
2018-11-23T11:38:54.798Z,10.40
2018-11-23T11:41:22.648Z,10.60
2018-11-23T11:43:50.430Z,10.60
2018-11-23T11:46:18.217Z,10.60
2018-11-23T11:48:45.969Z,10.80
2018-11-23T11:51:14.763Z,10.60
2018-11-23T11:53:41.730Z,10.40
2018-11-23T11:56:09.748Z,10.30
2018-11-23T11:58:37.838Z,10.10
2018-11-23T12:01:05.778Z,10.00
2018-11-23T12:03:33.600Z,10.00
2018-11-23T12:06:01.388Z,9.80
2018-11-23T12:08:29.199Z,9.80
2018-11-23T12:10:56.990Z,9.70
2018-11-23T12:13:24.822Z,9.80
2018-11-23T12:15:52.570Z,9.70
2018-11-23T12:18:20.373Z,9.80
2018-11-23T12:20:48.197Z,9.70
2018-11-23T12:23:16.033Z,9.50
2018-11-23T12:25:43.962Z,9.40
2018-11-23T12:28:11.747Z,9.30
2018-11-23T12:30:39.579Z,9.20
2018-11-23T12:33:07.522Z,9.20
2018-11-23T12:35:35.356Z,9.20
2018-11-23T12:38:03.159Z,9.00
2018-11-23T12:40:30.965Z,8.90
2018-11-23T12:42:58.742Z,8.80
2018-11-23T12:45:26.713Z,8.70
2018-11-23T12:47:55.541Z,8.60
2018-11-23T12:50:23.754Z,8.60
2018-11-23T12:52:51.655Z,8.60
2018-11-23T12:55:19.794Z,8.50
2018-11-23T12:57:47.598Z,8.40
2018-11-23T13:00:22.122Z,8.60
2018-11-23T13:02:52.074Z,8.30
2018-11-23T13:05:20.846Z,8.30
2018-11-23T13:07:49.381Z,8.20
2018-11-23T13:10:17.173Z,8.30
2018-11-23T13:12:50.681Z,8.30
2018-11-23T13:15:13.966Z,8.20
2018-11-23T13:17:41.775Z,8.20
2018-11-23T13:20:11.477Z,8.10
2018-11-23T13:22:39.633Z,8.00
2018-11-23T13:25:09.412Z,7.90
2018-11-23T13:27:37.744Z,7.90
2018-11-23T13:30:10.013Z,7.80
2018-11-23T13:32:37.897Z,7.80
2018-11-23T13:35:08.127Z,7.70
2018-11-23T13:37:35.991Z,7.70
2018-11-23T13:40:04.914Z,7.70
2018-11-23T13:42:32.687Z,7.70
2018-11-23T13:45:00.514Z,7.60
2018-11-23T13:47:28.361Z,7.60
2018-11-23T13:49:56.267Z,7.60
2018-11-23T13:52:24.081Z,7.50
2018-11-23T13:54:51.925Z,7.50
2018-11-23T13:57:19.717Z,7.50
2018-11-23T13:59:47.554Z,7.40
2018-11-23T14:02:15.315Z,7.40
2018-11-23T14:04:43.104Z,7.40
2018-11-23T14:07:10.910Z,7.30
2018-11-23T14:09:38.770Z,7.30
2018-11-23T14:12:06.772Z,7.20
2018-11-23T14:14:34.564Z,7.20
2018-11-23T14:17:02.346Z,7.10
2018-11-23T14:19:30.119Z,7.10
2018-11-23T14:21:57.889Z,7.00
2018-11-23T14:24:25.698Z,7.00
2018-11-23T14:26:53.478Z,7.00
2018-11-23T14:29:21.553Z,6.90
2018-11-23T14:31:49.320Z,6.90
2018-11-23T14:34:17.153Z,6.80
2018-11-23T14:36:45.053Z,6.80
2018-11-23T14:39:13.115Z,6.80
2018-11-23T14:41:40.869Z,6.70
2018-11-23T14:44:08.630Z,6.70
2018-11-23T14:46:36.683Z,6.70
2018-11-23T14:49:04.925Z,6.70
2018-11-23T14:51:32.726Z,6.80
2018-11-23T14:54:00.505Z,6.70
2018-11-23T14:56:28.259Z,6.70
2018-11-23T14:58:56.068Z,6.60
2018-11-23T15:01:24.205Z,6.50
2018-11-23T15:03:51.962Z,6.50
2018-11-23T15:06:19.734Z,6.50
2018-11-23T15:08:47.662Z,6.50
2018-11-23T15:11:15.443Z,6.50
2018-11-23T15:13:43.319Z,6.50
2018-11-23T15:16:11.121Z,6.50
2018-11-23T15:18:39.077Z,6.50
2018-11-23T15:21:07.058Z,6.50
2018-11-23T15:23:34.891Z,6.50
2018-11-23T15:26:02.659Z,6.50
2018-11-23T15:28:30.487Z,6.50
2018-11-23T15:30:58.292Z,6.40
2018-11-23T15:33:26.086Z,6.40
2018-11-23T15:35:53.918Z,6.40
2018-11-23T15:38:22.922Z,6.40
2018-11-23T15:40:50.701Z,6.40
2018-11-23T15:43:19.481Z,6.40
2018-11-23T15:45:47.333Z,6.40
2018-11-23T15:48:16.239Z,6.40
2018-11-23T15:50:44.449Z,6.40
2018-11-23T15:53:15.797Z,6.40
2018-11-23T15:55:43.694Z,6.40
2018-11-23T15:58:12.832Z,6.40
2018-11-23T16:00:42.076Z,6.40
2018-11-23T16:03:11.157Z,6.40
2018-11-23T16:05:39.216Z,6.40
2018-11-23T16:08:10.394Z,6.30
2018-11-23T16:10:38.767Z,6.40
2018-11-23T16:13:11.643Z,6.50
2018-11-23T16:15:39.275Z,6.40
2018-11-23T16:18:07.608Z,6.30
2018-11-23T16:20:38.059Z,6.30
2018-11-23T16:23:07.973Z,6.30
2018-11-23T16:25:35.802Z,6.20
2018-11-23T16:28:04.809Z,6.20
2018-11-23T16:30:33.987Z,6.20
2018-11-23T16:33:03.265Z,6.20
2018-11-23T16:35:33.388Z,6.10
2018-11-23T16:38:02.774Z,6.10
2018-11-23T16:40:31.700Z,6.10
2018-11-23T16:43:00.074Z,6.10
2018-11-23T16:45:29.254Z,6.10
2018-11-23T16:47:57.944Z,6.10
2018-11-23T16:50:26.176Z,6.10
2018-11-23T16:52:54.284Z,6.10
2018-11-23T16:55:22.562Z,6.30
2018-11-23T16:58:06.465Z,6.20
2018-11-23T17:00:36.614Z,6.10
2018-11-23T17:03:06.325Z,6.00
2018-11-23T17:05:35.791Z,6.00
2018-11-23T17:08:03.981Z,5.90
2018-11-23T17:10:31.849Z,5.80
2018-11-23T17:12:59.642Z,5.80
2018-11-23T17:15:28.355Z,5.80
2018-11-23T17:17:56.242Z,5.70
2018-11-23T17:20:25.352Z,5.70
2018-11-23T17:22:54.503Z,5.60
2018-11-23T17:25:23.113Z,5.50
2018-11-23T17:27:51.711Z,5.50
2018-11-23T17:30:21.708Z,5.40
2018-11-23T17:32:49.606Z,5.40
2018-11-23T17:35:19.155Z,5.40
2018-11-23T17:37:46.932Z,5.80
2018-11-23T17:40:16.955Z,5.30
2018-11-23T17:42:47.346Z,5.20
2018-11-23T17:45:20.153Z,5.30
2018-11-23T17:47:50.307Z,5.20
2018-11-23T17:50:21.132Z,5.20
2018-11-23T17:52:49.449Z,5.20
2018-11-23T17:55:17.510Z,5.20
2018-11-23T17:57:50.420Z,5.20
2018-11-23T18:00:24.088Z,5.10
2018-11-23T18:02:54.525Z,5.10
2018-11-23T18:05:23.482Z,5.10
2018-11-23T18:07:51.832Z,5.10
2018-11-23T18:10:21.365Z,5.00
2018-11-23T18:12:49.533Z,5.10
2018-11-23T18:15:19.554Z,5.10
2018-11-23T18:17:48.052Z,5.00
2018-11-23T18:20:17.950Z,5.00
2018-11-23T18:22:46.316Z,4.90
2018-11-23T18:25:15.615Z,4.90
2018-11-23T18:27:43.994Z,4.90
2018-11-23T18:30:12.335Z,4.90
2018-11-23T18:32:40.646Z,4.90
2018-11-23T18:35:09.818Z,4.80
2018-11-23T18:37:37.590Z,4.80
2018-11-23T18:40:07.565Z,4.80
2018-11-23T18:42:35.345Z,4.80
2018-11-23T18:45:03.451Z,4.80
2018-11-23T18:47:31.217Z,4.70
2018-11-23T18:49:59.021Z,4.80
2018-11-23T18:52:26.822Z,4.80
2018-11-23T18:54:54.685Z,4.70
2018-11-23T18:57:22.495Z,4.70
2018-11-23T18:59:52.961Z,4.70
2018-11-23T19:02:21.385Z,4.70
2018-11-23T19:04:49.607Z,4.70
2018-11-23T19:07:36.838Z,4.70
2018-11-23T19:10:14.704Z,4.70
2018-11-23T19:12:51.807Z,4.70
2018-11-23T19:15:25.225Z,4.70
2018-11-23T19:17:49.756Z,4.80
2018-11-23T19:20:24.067Z,4.30
2018-11-23T19:22:53.011Z,4.80
2018-11-23T19:25:23.639Z,4.80
2018-11-23T19:27:53.527Z,4.80
2018-11-23T19:30:28.541Z,4.40
2018-11-23T19:32:52.417Z,4.80
2018-11-23T19:35:20.631Z,4.90
2018-11-23T19:37:50.259Z,4.60
2018-11-23T19:40:18.354Z,4.90
2018-11-23T19:42:46.694Z,4.90
2018-11-23T19:45:41.221Z,4.90
2018-11-23T19:48:12.005Z,5.00
2018-11-23T19:53:45.421Z,5.00
2018-11-23T19:56:13.847Z,4.80
2018-11-23T19:58:42.134Z,5.00
2018-11-23T20:01:16.168Z,5.10
2018-11-23T20:03:44.038Z,5.10
2018-11-23T20:06:11.886Z,5.20
2018-11-23T20:08:39.842Z,5.20
2018-11-23T20:11:07.702Z,5.20
2018-11-23T20:13:35.493Z,5.30
2018-11-23T20:16:03.300Z,5.30
2018-11-23T20:18:31.146Z,5.30
2018-11-23T20:20:58.927Z,5.30
2018-11-23T20:23:26.768Z,5.30
2018-11-23T20:25:54.870Z,5.30
2018-11-23T20:28:22.667Z,5.30
2018-11-23T20:30:50.502Z,5.30
2018-11-23T20:33:19.051Z,5.50
2018-11-23T20:35:46.833Z,5.40
2018-11-23T20:38:14.669Z,5.40
2018-11-23T20:40:42.478Z,5.40
2018-11-23T20:43:10.565Z,5.40
2018-11-23T20:45:38.519Z,5.40
2018-11-23T20:48:06.402Z,5.50
2018-11-23T20:50:34.165Z,5.50
2018-11-23T20:53:02.214Z,5.50
2018-11-23T20:55:30.253Z,5.50
2018-11-23T20:57:58.230Z,5.60
2018-11-23T21:00:26.210Z,5.60
2018-11-23T21:02:54.771Z,5.60
2018-11-23T21:05:23.190Z,5.60
2018-11-23T21:07:51.476Z,5.60
2018-11-23T21:10:21.490Z,5.60
2018-11-23T21:12:49.447Z,5.70
2018-11-23T21:15:31.813Z,5.70
2018-11-23T21:18:02.648Z,5.70
2018-11-23T21:20:30.567Z,5.60
2018-11-23T21:22:58.850Z,5.60
2018-11-23T21:25:27.094Z,5.70
2018-11-23T21:27:55.045Z,5.70
2018-11-23T21:30:23.437Z,5.70
2018-11-23T21:32:52.023Z,5.70
2018-11-23T21:35:19.939Z,5.70
2018-11-23T21:37:47.761Z,5.80
2018-11-23T21:40:16.122Z,5.80
2018-11-23T21:42:43.968Z,5.80
2018-11-23T21:45:16.669Z,5.70
2018-11-23T21:47:44.517Z,5.80
2018-11-23T21:50:24.621Z,5.80
2018-11-23T21:52:45.074Z,5.90
2018-11-23T21:55:15.071Z,5.90
2018-11-23T21:57:42.856Z,5.90
2018-11-23T22:00:12.096Z,5.90
2018-11-23T22:02:39.887Z,5.90
2018-11-23T22:05:08.122Z,5.90
2018-11-23T22:07:35.921Z,5.90
2018-11-23T22:10:06.406Z,5.90
2018-11-23T22:12:34.262Z,5.90
2018-11-23T22:15:02.093Z,5.80
2018-11-23T22:17:29.906Z,5.80
2018-11-23T22:19:57.657Z,5.80
2018-11-23T22:22:25.469Z,5.80
2018-11-23T22:24:53.297Z,5.80
2018-11-23T22:27:21.091Z,5.80
2018-11-23T22:29:49.037Z,6.00
2018-11-23T22:32:16.810Z,6.10
2018-11-23T22:34:44.641Z,5.90
2018-11-23T22:37:12.487Z,5.90
2018-11-23T22:39:40.700Z,5.90
2018-11-23T22:42:08.494Z,5.90
2018-11-23T22:44:36.333Z,5.80
2018-11-23T22:47:04.695Z,6.40
2018-11-23T22:49:32.476Z,6.20
2018-11-23T22:52:00.306Z,6.40
2018-11-23T22:54:28.096Z,6.10
2018-11-23T22:56:55.919Z,6.40
2018-11-23T22:59:24.069Z,6.40
2018-11-23T23:01:57.586Z,6.10
2018-11-23T23:04:25.421Z,6.00
2018-11-23T23:06:53.363Z,5.90
2018-11-23T23:09:21.206Z,5.90
2018-11-23T23:11:49.049Z,5.80
2018-11-23T23:14:16.864Z,5.70
2018-11-23T23:16:44.699Z,5.60
2018-11-23T23:19:12.705Z,5.60
2018-11-23T23:21:40.613Z,5.60
2018-11-23T23:24:11.880Z,5.70
2018-11-23T23:26:36.822Z,5.60
2018-11-23T23:29:05.800Z,5.70
2018-11-23T23:31:33.601Z,5.60
2018-11-23T23:34:03.300Z,5.50
2018-11-23T23:36:31.114Z,5.50
2018-11-23T23:38:58.929Z,5.60
2018-11-23T23:41:26.698Z,5.50
2018-11-23T23:43:54.490Z,5.50
2018-11-23T23:46:22.295Z,5.40
2018-11-23T23:48:50.110Z,5.40
2018-11-23T23:51:18.898Z,5.40
2018-11-23T23:53:46.670Z,5.30
2018-11-23T23:56:14.571Z,5.40
2018-11-23T23:58:42.564Z,5.30
